Time;durP1;ratioP1;P1;durP2;ratioP2;P2;SDS_P1;SDS_P2;PMS_P1;PMS_P2;Temp;Humidity;BMP_temperature;BMP_pressure;BME280_temperature;BME280_humidity;BME280_pressure;Samples;Min_cycle;Max_cycle;Signal;HPM_P1;HPM_P2
2022/01/15 00:02:10;;;;;;;3.13;1.87;;;2.80;99.90;;;;;;5031387;28;20235;-68
2022/01/15 00:04:36;;;;;;;4.70;1.80;;;2.80;99.90;;;;;;5031218;28;20174;-68
2022/01/15 00:07:02;;;;;;;7.90;2.10;;;2.80;99.90;;;;;;5031354;28;20164;-68
2022/01/15 00:09:27;;;;;;;21.30;2.67;;;2.80;99.90;;;;;;5031172;28;20568;-67
2022/01/15 00:11:53;;;;;;;7.03;2.97;;;2.80;99.90;;;;;;5031363;28;20242;-67
2022/01/15 00:14:26;;;;;;;0.80;0.70;;;2.70;99.90;;;;;;5031065;28;20179;-67
2022/01/15 00:16:57;;;;;;;1.40;1.30;;;2.90;99.90;;;;;;5031368;28;20809;-68
2022/01/15 00:19:40;;;;;;;11.83;2.20;;;2.80;99.90;;;;;;5031228;28;20422;-67
2022/01/15 00:22:05;;;;;;;3.90;1.73;;;2.90;99.90;;;;;;5031108;28;20536;-68
2022/01/15 00:24:31;;;;;;;1.00;0.90;;;2.80;99.90;;;;;;5033791;28;20525;-68
2022/01/15 00:26:56;;;;;;;8.70;1.03;;;2.80;99.90;;;;;;5035254;28;20254;-68
2022/01/15 00:29:22;;;;;;;3.10;2.20;;;2.90;99.90;;;;;;5034958;28;20214;-67
2022/01/15 00:31:47;;;;;;;1.30;1.20;;;2.90;99.90;;;;;;5035186;28;20174;-68
2022/01/15 00:34:12;;;;;;;1.00;0.80;;;2.80;99.90;;;;;;5035167;28;20258;-68
2022/01/15 00:36:38;;;;;;;3.50;1.83;;;2.80;99.90;;;;;;5034848;28;20182;-68
2022/01/15 00:39:03;;;;;;;3.30;1.57;;;2.80;99.90;;;;;;5034977;28;20576;-68
2022/01/15 00:41:29;;;;;;;3.20;2.03;;;2.80;99.90;;;;;;5034834;28;20196;-68
2022/01/15 00:43:54;;;;;;;2.73;1.63;;;2.70;99.90;;;;;;5034850;28;20160;-68
2022/01/15 00:46:20;;;;;;;6.00;1.87;;;2.60;99.90;;;;;;5041147;28;20269;-68
2022/01/15 00:48:45;;;;;;;5.00;1.47;;;2.60;99.90;;;;;;5054798;28;20571;-68
2022/01/15 00:51:11;;;;;;;5.47;1.53;;;2.60;99.90;;;;;;5054750;28;20181;-68
2022/01/15 00:53:36;;;;;;;6.33;2.43;;;2.50;99.90;;;;;;5054826;28;20171;-68
2022/01/15 00:56:02;;;;;;;2.20;1.67;;;2.40;99.90;;;;;;5054689;28;20182;-68
2022/01/15 00:58:27;;;;;;;1.63;1.47;;;2.40;99.90;;;;;;5054681;28;20245;-67
2022/01/15 01:00:53;;;;;;;1.73;1.30;;;2.50;99.90;;;;;;5054461;28;20206;-68
2022/01/15 01:03:18;;;;;;;1.07;0.87;;;2.40;99.90;;;;;;5054669;28;20220;-68
2022/01/15 01:05:44;;;;;;;3.30;1.20;;;2.40;99.90;;;;;;5054452;28;20261;-68
2022/01/15 01:08:09;;;;;;;1.90;1.30;;;2.40;99.90;;;;;;5054903;28;20582;-68
2022/01/15 01:10:49;;;;;;;4.53;1.90;;;2.50;99.90;;;;;;5054407;28;20195;-68
2022/01/15 01:22:16;;;;;;;0.80;0.80;;;2.30;99.90;;;;;;5054043;28;20468;-68
2022/01/15 01:24:20;;;;;;;1.40;1.17;;;2.40;99.90;;;;;;5053987;28;20785;-68
2022/01/15 01:26:56;;;;;;;3.13;1.70;;;2.20;99.90;;;;;;5054209;28;20402;-68
2022/01/15 01:29:37;;;;;;;4.70;1.53;;;2.20;99.90;;;;;;5053958;28;20460;-68
2022/01/15 01:34:31;;;;;;;3.27;1.23;;;2.40;99.90;;;;;;5053139;28;20483;-67
2022/01/15 01:37:14;;;;;;;12.60;2.10;;;2.40;99.90;;;;;;5053099;28;21075;-67
2022/01/15 01:39:50;;;;;;;0.80;0.80;;;2.40;99.90;;;;;;5053872;28;20523;-67
2022/01/15 01:45:06;;;;;;;4.00;1.03;;;2.20;99.90;;;;;;5053618;28;20790;-67
2022/01/15 01:47:39;;;;;;;8.40;1.20;;;2.20;99.90;;;;;;5053505;28;20416;-67
2022/01/15 01:50:08;;;;;;;3.80;2.17;;;2.30;99.90;;;;;;5053753;28;20540;-67
2022/01/15 01:52:34;;;;;;;4.03;1.00;;;2.30;99.90;;;;;;5053481;28;20410;-67
2022/01/15 01:54:59;;;;;;;5.03;1.93;;;2.30;99.90;;;;;;5053415;28;20492;-67
2022/01/15 01:57:25;;;;;;;1.70;1.50;;;2.20;99.90;;;;;;5053425;28;20163;-67
2022/01/15 01:59:50;;;;;;;1.27;0.83;;;2.30;99.90;;;;;;5053196;28;20190;-67
2022/01/15 02:02:16;;;;;;;3.47;1.23;;;2.30;99.90;;;;;;5053340;28;20202;-68
2022/01/15 02:04:41;;;;;;;5.40;1.73;;;2.40;99.90;;;;;;5053167;28;20244;-67
2022/01/15 02:07:07;;;;;;;2.93;1.57;;;2.30;99.90;;;;;;5053428;28;20170;-68
2022/01/15 02:09:35;;;;;;;0.70;0.70;;;2.30;99.90;;;;;;5053548;28;20225;-66
2022/01/15 02:12:01;;;;;;;1.30;1.20;;;2.30;99.90;;;;;;5049911;28;20171;-67
2022/01/15 02:14:30;;;;;;;3.73;0.90;;;2.40;99.90;;;;;;5018582;28;20459;-66
2022/01/15 02:16:57;;;;;;;11.40;3.07;;;2.40;99.90;;;;;;5033220;28;20172;-66
2022/01/15 02:19:32;;;;;;;1.37;1.20;;;2.30;99.90;;;;;;5033157;28;20441;-66
2022/01/15 02:24:41;;;;;;;0.80;0.80;;;2.30;99.90;;;;;;5033009;28;20900;-66
2022/01/15 02:27:07;;;;;;;1.93;1.10;;;2.20;99.90;;;;;;5033161;28;20406;-66
2022/01/15 02:29:32;;;;;;;10.53;1.37;;;2.20;99.90;;;;;;5032668;28;20257;-66
2022/01/15 02:31:58;;;;;;;0.70;0.70;;;2.20;99.90;;;;;;5032865;28;20180;-66
2022/01/15 02:34:23;;;;;;;3.90;1.37;;;2.20;99.90;;;;;;5033015;28;20258;-66
2022/01/15 02:36:48;;;;;;;1.57;1.10;;;2.20;99.90;;;;;;5032725;28;20552;-66
2022/01/15 02:39:14;;;;;;;11.30;1.60;;;2.20;99.90;;;;;;5032685;28;20199;-67
2022/01/15 02:41:41;;;;;;;2.80;1.00;;;2.20;99.90;;;;;;5032828;28;20203;-67
2022/01/15 02:44:14;;;;;;;1.10;1.10;;;2.20;99.90;;;;;;5032963;28;20549;-66
2022/01/15 02:49:16;;;;;;;3.27;2.97;;;2.20;99.90;;;;;;5032561;28;20430;-66
2022/01/15 02:51:41;;;;;;;2.40;1.70;;;2.10;99.90;;;;;;5032573;28;20501;-65
2022/01/15 02:54:07;;;;;;;2.00;1.77;;;2.10;99.90;;;;;;5032538;28;20447;-66
2022/01/15 02:56:36;;;;;;;4.13;1.63;;;2.10;99.90;;;;;;5032608;28;20203;-66
2022/01/15 02:59:03;;;;;;;4.00;1.87;;;2.00;99.90;;;;;;5032492;28;20200;-66
2022/01/15 03:01:29;;;;;;;15.10;2.17;;;2.00;99.90;;;;;;5032406;28;20495;-66
2022/01/15 03:03:55;;;;;;;3.60;1.40;;;1.90;99.90;;;;;;5032236;28;20783;-67
2022/01/15 03:06:20;;;;;;;1.17;1.17;;;1.90;99.90;;;;;;5032140;28;20407;-66
2022/01/15 03:08:48;;;;;;;10.53;2.63;;;2.00;99.90;;;;;;5032134;28;20585;-66
2022/01/15 03:11:14;;;;;;;4.73;1.23;;;2.00;99.90;;;;;;5032126;28;20175;-66
2022/01/15 03:13:41;;;;;;;0.90;0.90;;;1.80;99.90;;;;;;5032004;28;20966;-66
2022/01/15 03:16:09;;;;;;;2.87;0.90;;;1.90;99.90;;;;;;5033063;28;20414;-66
2022/01/15 03:18:34;;;;;;;1.17;1.07;;;1.90;99.90;;;;;;5031994;28;20776;-66
2022/01/15 03:21:00;;;;;;;1.63;1.27;;;1.90;99.90;;;;;;5032298;28;20453;-66
2022/01/15 03:23:26;;;;;;;1.63;1.40;;;1.90;99.90;;;;;;5031948;28;20655;-66
2022/01/15 03:25:51;;;;;;;1.57;0.93;;;1.90;99.90;;;;;;5031954;28;20642;-66
2022/01/15 03:28:17;;;;;;;4.80;1.60;;;1.80;99.90;;;;;;5031952;28;20168;-66
2022/01/15 03:30:42;;;;;;;5.90;1.10;;;1.80;99.90;;;;;;5031824;28;20207;-66
2022/01/15 03:33:08;;;;;;;2.03;1.53;;;1.70;99.90;;;;;;5032044;28;20176;-66
2022/01/15 03:35:34;;;;;;;1.50;1.40;;;1.80;99.90;;;;;;5032689;28;20224;-67
2022/01/15 03:38:00;;;;;;;2.00;1.43;;;1.80;99.90;;;;;;5031912;28;20174;-67
2022/01/15 03:40:26;;;;;;;1.30;1.20;;;1.70;99.90;;;;;;5031559;28;20830;-68
2022/01/15 03:42:51;;;;;;;1.23;0.80;;;1.70;99.90;;;;;;5031947;28;20398;-67
2022/01/15 03:45:17;;;;;;;6.83;1.10;;;1.70;99.90;;;;;;5031808;28;20560;-67
2022/01/15 03:47:44;;;;;;;1.40;1.30;;;1.70;99.90;;;;;;5031875;28;20167;-67
2022/01/15 03:50:11;;;;;;;0.77;0.77;;;1.70;99.90;;;;;;5031678;28;20198;-67
2022/01/15 03:52:36;;;;;;;2.30;2.20;;;1.70;99.90;;;;;;5031715;28;20410;-67
2022/01/15 03:55:05;;;;;;;8.50;2.30;;;1.70;99.90;;;;;;5031449;28;20980;-67
2022/01/15 03:57:30;;;;;;;1.57;0.97;;;1.70;99.90;;;;;;5031085;28;20409;-67
2022/01/15 03:59:56;;;;;;;22.10;1.63;;;1.60;99.90;;;;;;5030938;28;20517;-66
2022/01/15 04:02:21;;;;;;;0.70;0.70;;;1.60;99.90;;;;;;5031308;28;20195;-67
2022/01/15 04:04:47;;;;;;;14.37;1.83;;;1.60;99.90;;;;;;5031262;28;20170;-66
2022/01/15 04:07:12;;;;;;;2.03;1.60;;;1.50;99.90;;;;;;5031433;28;20246;-67
2022/01/15 04:09:38;;;;;;;0.90;0.90;;;1.60;99.90;;;;;;5031413;28;20225;-66
2022/01/15 04:12:03;;;;;;;2.83;2.00;;;1.60;99.90;;;;;;5031844;28;20183;-66
2022/01/15 04:14:29;;;;;;;0.80;0.80;;;1.60;99.90;;;;;;5042626;28;20186;-66
2022/01/15 04:16:54;;;;;;;3.13;1.20;;;1.60;99.90;;;;;;5051318;28;20182;-66
2022/01/15 04:19:20;;;;;;;3.60;1.63;;;1.70;99.90;;;;;;5051401;28;20194;-66
2022/01/15 04:21:46;;;;;;;4.60;1.70;;;1.60;99.90;;;;;;5051634;28;20206;-66
2022/01/15 04:24:11;;;;;;;6.90;2.70;;;1.60;99.90;;;;;;5051064;28;20409;-67
2022/01/15 04:26:37;;;;;;;0.97;0.93;;;1.60;99.90;;;;;;5051070;28;20196;-67
2022/01/15 04:29:06;;;;;;;0.90;0.80;;;1.60;99.90;;;;;;5050883;28;20198;-66
2022/01/15 04:31:46;;;;;;;2.97;1.23;;;1.60;99.90;;;;;;5050996;28;20190;-66
2022/01/15 04:34:14;;;;;;;2.13;1.40;;;1.70;99.90;;;;;;5051278;28;20415;-66
2022/01/15 04:36:39;;;;;;;9.20;1.03;;;1.70;99.90;;;;;;5051383;28;20406;-67
2022/01/15 04:39:05;;;;;;;1.20;1.10;;;1.70;99.90;;;;;;5051014;28;20413;-66
2022/01/15 04:41:30;;;;;;;1.53;1.43;;;1.70;99.90;;;;;;5051044;28;20202;-66
2022/01/15 04:43:56;;;;;;;0.90;0.90;;;1.70;99.90;;;;;;5050865;28;20621;-66
2022/01/15 04:46:21;;;;;;;1.53;1.43;;;1.70;99.90;;;;;;5050999;28;20171;-66
2022/01/15 04:48:47;;;;;;;1.67;1.57;;;1.70;99.90;;;;;;5051092;28;20170;-66
2022/01/15 04:51:12;;;;;;;3.13;2.90;;;1.70;99.90;;;;;;5050986;28;20633;-66
2022/01/15 04:53:38;;;;;;;1.87;1.70;;;1.70;99.90;;;;;;5050877;28;20208;-66
2022/01/15 04:56:03;;;;;;;1.43;1.33;;;1.80;99.90;;;;;;5050827;28;20183;-66
2022/01/15 04:58:29;;;;;;;2.07;1.13;;;1.80;99.90;;;;;;5050987;28;20178;-66
2022/01/15 05:00:54;;;;;;;1.40;1.30;;;1.80;99.90;;;;;;5050612;28;20285;-66
2022/01/15 05:03:20;;;;;;;8.33;2.07;;;1.80;99.90;;;;;;5051031;28;20170;-66
2022/01/15 05:05:45;;;;;;;1.30;1.10;;;1.80;99.90;;;;;;5050733;28;20184;-66
2022/01/15 05:08:12;;;;;;;1.53;1.43;;;1.80;99.90;;;;;;5050957;28;20197;-66
2022/01/15 05:10:45;;;;;;;1.83;1.30;;;1.70;99.90;;;;;;5053597;28;20195;-67
2022/01/15 05:13:10;;;;;;;2.50;1.17;;;1.70;99.90;;;;;;5054272;28;20788;-66
2022/01/15 05:15:36;;;;;;;2.13;1.30;;;1.70;99.90;;;;;;5054474;28;20420;-66
2022/01/15 05:18:01;;;;;;;1.37;1.27;;;1.70;99.90;;;;;;5054376;28;20182;-66
2022/01/15 05:20:27;;;;;;;2.60;2.07;;;1.60;99.90;;;;;;5054182;28;20197;-66
2022/01/15 05:22:52;;;;;;;1.37;1.27;;;1.60;99.90;;;;;;5054260;28;20217;-66
2022/01/15 05:25:18;;;;;;;9.90;3.03;;;1.60;99.90;;;;;;5053938;28;20229;-67
2022/01/15 05:27:46;;;;;;;1.37;1.27;;;1.50;99.90;;;;;;5054034;28;20171;-67
2022/01/15 05:30:12;;;;;;;3.03;1.60;;;1.60;99.90;;;;;;5054230;28;20248;-67
2022/01/15 05:32:38;;;;;;;1.43;1.33;;;1.60;99.90;;;;;;5054118;28;20401;-66
2022/01/15 05:35:04;;;;;;;4.90;0.97;;;1.70;99.90;;;;;;5053961;28;20408;-66
2022/01/15 05:37:30;;;;;;;5.87;2.80;;;1.60;99.90;;;;;;5054204;28;20624;-66
2022/01/15 05:39:56;;;;;;;3.13;2.80;;;1.60;99.90;;;;;;5053824;28;20426;-67
2022/01/15 05:42:22;;;;;;;1.47;0.93;;;1.50;99.90;;;;;;5053764;28;20481;-67
2022/01/15 05:44:47;;;;;;;2.60;1.30;;;1.50;99.90;;;;;;5053813;28;20596;-67
2022/01/15 05:47:13;;;;;;;1.30;1.20;;;1.40;99.90;;;;;;5053662;28;20509;-66
2022/01/15 05:49:38;;;;;;;2.20;2.10;;;1.50;99.90;;;;;;5053452;28;20677;-67
2022/01/15 05:52:05;;;;;;;2.47;1.50;;;1.50;99.90;;;;;;5053729;28;20240;-66
2022/01/15 05:54:31;;;;;;;3.20;2.13;;;1.50;99.90;;;;;;5053362;28;20174;-66
2022/01/15 05:56:56;;;;;;;2.00;1.87;;;1.60;99.90;;;;;;5053178;28;20763;-67
2022/01/15 05:59:22;;;;;;;3.47;2.37;;;1.60;99.90;;;;;;5053409;28;20804;-67
2022/01/15 06:01:48;;;;;;;1.57;1.17;;;1.50;99.90;;;;;;5053425;28;20680;-66
2022/01/15 06:04:14;;;;;;;5.23;2.33;;;1.40;99.90;;;;;;5053442;28;20174;-66
2022/01/15 06:06:39;;;;;;;1.90;1.40;;;1.50;99.90;;;;;;5053044;28;20415;-67
2022/01/15 06:09:05;;;;;;;2.43;2.23;;;1.50;99.90;;;;;;5053182;28;20183;-67
2022/01/15 06:11:30;;;;;;;1.80;1.60;;;1.50;99.90;;;;;;5052993;28;20601;-67
2022/01/15 06:13:56;;;;;;;5.67;2.87;;;1.60;99.90;;;;;;5048730;28;20261;-67
2022/01/15 06:16:22;;;;;;;2.03;1.37;;;1.60;99.90;;;;;;5033338;28;20452;-66
2022/01/15 06:18:48;;;;;;;12.13;2.10;;;1.60;99.90;;;;;;5033028;28;20172;-67
2022/01/15 06:21:14;;;;;;;2.50;1.97;;;1.50;99.90;;;;;;5032121;28;20532;-66
2022/01/15 06:23:39;;;;;;;1.40;1.30;;;1.50;99.90;;;;;;5032998;28;20175;-67
2022/01/15 06:26:05;;;;;;;1.63;1.13;;;1.40;99.90;;;;;;5032792;28;20545;-67
2022/01/15 06:28:30;;;;;;;1.20;1.10;;;1.40;99.90;;;;;;5033070;28;20532;-67
2022/01/15 06:30:56;;;;;;;2.03;1.90;;;1.40;99.90;;;;;;5032828;28;20563;-67
2022/01/15 06:33:21;;;;;;;1.73;1.63;;;1.30;99.90;;;;;;5032904;28;20175;-67
2022/01/15 06:35:47;;;;;;;1.83;1.70;;;1.30;99.90;;;;;;5032680;28;20685;-67
2022/01/15 06:38:12;;;;;;;1.63;1.53;;;1.40;99.90;;;;;;5032876;28;20187;-67
2022/01/15 06:40:38;;;;;;;4.13;2.23;;;1.50;99.90;;;;;;5032466;28;20211;-68
2022/01/15 06:43:05;;;;;;;2.93;1.97;;;1.50;99.90;;;;;;5032576;28;20167;-66
2022/01/15 06:45:31;;;;;;;1.80;1.70;;;1.50;99.90;;;;;;5032757;28;20176;-67
2022/01/15 06:47:57;;;;;;;6.00;2.57;;;1.40;99.90;;;;;;5032842;28;20429;-66
2022/01/15 06:50:24;;;;;;;10.63;2.70;;;1.40;99.90;;;;;;5032596;28;20669;-66
2022/01/15 06:52:50;;;;;;;2.33;2.20;;;1.40;99.90;;;;;;5032487;28;20494;-67
2022/01/15 06:55:16;;;;;;;2.10;2.00;;;1.40;99.90;;;;;;5032334;28;20419;-66
2022/01/15 06:57:42;;;;;;;4.80;3.47;;;1.50;99.90;;;;;;5032529;28;20406;-66
2022/01/15 07:00:09;;;;;;;4.77;2.30;;;1.40;99.90;;;;;;5032375;28;20606;-66
2022/01/15 07:02:34;;;;;;;5.10;1.77;;;1.40;99.90;;;;;;5031989;28;20257;-66
2022/01/15 07:05:00;;;;;;;2.47;2.27;;;1.40;99.90;;;;;;5032240;28;20410;-66
2022/01/15 07:07:26;;;;;;;3.63;3.33;;;1.40;99.90;;;;;;5032073;28;20263;-68
2022/01/15 07:09:52;;;;;;;22.50;3.63;;;1.20;99.90;;;;;;5032084;28;20188;-68
2022/01/15 07:12:17;;;;;;;1.80;1.70;;;1.20;99.90;;;;;;5032255;28;20176;-68
2022/01/15 07:14:43;;;;;;;1.60;1.33;;;1.10;99.90;;;;;;5032075;28;20195;-67
2022/01/15 07:17:10;;;;;;;3.33;1.27;;;1.10;99.90;;;;;;5032364;28;20171;-67
2022/01/15 07:19:36;;;;;;;5.70;2.93;;;1.20;99.90;;;;;;5032455;28;20603;-67
2022/01/15 07:22:02;;;;;;;4.00;2.40;;;1.20;99.90;;;;;;5014174;28;20454;-67
2022/01/15 07:24:27;;;;;;;2.87;1.63;;;1.10;99.90;;;;;;5031888;28;20430;-66
2022/01/15 07:26:53;;;;;;;6.43;1.87;;;1.10;99.90;;;;;;5031731;28;20406;-66
2022/01/15 07:29:18;;;;;;;1.10;1.10;;;1.10;99.90;;;;;;5031767;28;20223;-67
2022/01/15 07:31:46;;;;;;;7.50;1.37;;;1.20;99.90;;;;;;5032169;28;20168;-67
2022/01/15 07:34:12;;;;;;;3.23;2.97;;;1.20;99.90;;;;;;5031959;28;20262;-68
2022/01/15 07:36:38;;;;;;;2.20;1.93;;;1.10;99.90;;;;;;5031652;28;20479;-68
2022/01/15 07:39:05;;;;;;;4.83;2.20;;;1.10;99.90;;;;;;5031557;28;20429;-68
2022/01/15 07:41:31;;;;;;;4.27;1.30;;;1.10;99.90;;;;;;5031856;28;20561;-68
2022/01/15 07:43:56;;;;;;;9.07;2.83;;;1.20;99.90;;;;;;5031669;28;20414;-67
2022/01/15 07:46:22;;;;;;;6.40;2.07;;;1.10;99.90;;;;;;5031899;28;20413;-67
2022/01/15 07:48:48;;;;;;;9.63;3.70;;;1.30;99.90;;;;;;5031471;28;20231;-68
2022/01/15 07:51:13;;;;;;;14.23;2.20;;;1.20;99.90;;;;;;5031372;28;20266;-67
2022/01/15 07:53:39;;;;;;;1.70;1.60;;;1.30;99.90;;;;;;5031266;28;20534;-67
2022/01/15 07:56:04;;;;;;;3.57;1.47;;;1.30;99.90;;;;;;5031691;28;20168;-66
2022/01/15 07:58:30;;;;;;;4.40;3.20;;;1.30;99.90;;;;;;5031566;28;20211;-67
2022/01/15 08:00:55;;;;;;;4.53;1.70;;;1.40;99.90;;;;;;5031296;28;20231;-67
2022/01/15 08:03:21;;;;;;;2.57;2.13;;;1.40;99.90;;;;;;5031464;28;20202;-66
2022/01/15 08:05:47;;;;;;;1.70;1.60;;;1.50;99.90;;;;;;5031736;28;20638;-66
2022/01/15 08:08:12;;;;;;;2.07;1.90;;;1.60;99.90;;;;;;5031477;28;20164;-67
2022/01/15 08:10:37;;;;;;;7.93;2.53;;;1.50;99.90;;;;;;5031318;28;20192;-68
2022/01/15 08:13:03;;;;;;;3.33;1.50;;;1.60;99.90;;;;;;5031226;28;20180;-66
2022/01/15 08:15:29;;;;;;;3.23;2.53;;;1.50;99.90;;;;;;5032834;28;20187;-70
2022/01/15 08:17:55;;;;;;;2.33;1.47;;;1.40;99.90;;;;;;5032385;28;20182;-66
2022/01/15 08:20:20;;;;;;;1.77;1.67;;;1.40;99.90;;;;;;5031208;28;20461;-68
2022/01/15 08:22:46;;;;;;;10.07;1.97;;;1.50;99.90;;;;;;5029764;28;20215;-70
2022/01/15 08:25:18;;;;;;;5.03;3.20;;;1.60;99.90;;;;;;5031769;28;20642;-67
2022/01/15 08:27:45;;;;;;;5.33;2.13;;;1.60;99.90;;;;;;5032309;28;20183;-67
2022/01/15 08:30:11;;;;;;;5.10;2.77;;;1.60;99.90;;;;;;5032272;28;20460;-67
2022/01/15 08:32:37;;;;;;;3.07;2.20;;;1.40;99.90;;;;;;5031407;28;20489;-67
2022/01/15 08:35:03;;;;;;;2.33;1.63;;;1.50;99.90;;;;;;5030925;28;20854;-67
2022/01/15 08:37:29;;;;;;;6.20;2.13;;;1.70;99.90;;;;;;5031158;28;20501;-67
2022/01/15 08:39:54;;;;;;;2.20;1.50;;;1.60;99.90;;;;;;5031162;28;20576;-67
2022/01/15 08:42:20;;;;;;;3.00;1.83;;;1.70;99.90;;;;;;5031172;28;20682;-67
2022/01/15 08:44:46;;;;;;;3.60;2.70;;;1.70;99.90;;;;;;5032341;28;20168;-67
2022/01/15 08:47:12;;;;;;;3.40;2.80;;;1.80;99.90;;;;;;5034910;28;20719;-68
2022/01/15 08:49:38;;;;;;;2.90;2.60;;;1.90;99.90;;;;;;5034757;28;20309;-67
2022/01/15 08:52:04;;;;;;;3.53;2.63;;;1.90;99.90;;;;;;5035149;28;20398;-67
2022/01/15 08:54:30;;;;;;;3.23;1.90;;;1.80;99.90;;;;;;5034787;28;20406;-67
2022/01/15 08:56:56;;;;;;;3.70;2.47;;;1.90;99.90;;;;;;5035063;28;20412;-68
2022/01/15 08:59:23;;;;;;;3.10;2.80;;;1.90;99.90;;;;;;5035024;28;20279;-68
2022/01/15 09:01:49;;;;;;;8.53;3.10;;;2.00;99.90;;;;;;5034616;28;20287;-71
2022/01/15 09:04:15;;;;;;;4.77;3.47;;;1.90;99.90;;;;;;5034701;28;20452;-68
2022/01/15 09:06:40;;;;;;;3.37;2.60;;;1.80;99.90;;;;;;5034949;28;20403;-70
2022/01/15 09:09:06;;;;;;;17.97;2.00;;;1.50;99.90;;;;;;5034705;28;20341;-68
2022/01/15 09:11:32;;;;;;;2.83;2.13;;;1.60;99.90;;;;;;5034710;28;20174;-68
2022/01/15 09:13:57;;;;;;;3.97;2.70;;;1.50;99.90;;;;;;5034384;28;20653;-67
2022/01/15 09:16:23;;;;;;;13.23;1.60;;;1.40;99.90;;;;;;5034361;28;20172;-68
2022/01/15 09:18:49;;;;;;;3.67;2.47;;;1.50;99.90;;;;;;5034161;28;20182;-67
2022/01/15 09:21:15;;;;;;;6.60;3.83;;;1.50;99.90;;;;;;5034451;28;20454;-68
2022/01/15 09:23:40;;;;;;;3.60;2.63;;;1.60;99.90;;;;;;5034377;28;20203;-68
2022/01/15 09:26:08;;;;;;;4.97;2.17;;;1.80;99.90;;;;;;5034463;28;20491;-68
2022/01/15 09:31:17;;;;;;;7.80;3.33;;;1.90;99.90;;;;;;5034149;28;20409;-70
2022/01/15 09:33:43;;;;;;;4.10;2.47;;;1.50;99.90;;;;;;5034024;28;20410;-68
2022/01/15 09:36:08;;;;;;;7.70;2.90;;;1.50;99.90;;;;;;5033979;28;20198;-69
2022/01/15 09:38:34;;;;;;;4.57;2.10;;;1.60;99.90;;;;;;5033852;28;20218;-69
2022/01/15 09:40:59;;;;;;;4.43;3.93;;;1.50;99.90;;;;;;5031611;28;20191;-67
2022/01/15 09:43:26;;;;;;;3.30;2.20;;;1.60;99.90;;;;;;5032501;28;20164;-67
2022/01/15 09:45:52;;;;;;;2.00;1.73;;;1.70;99.90;;;;;;5033502;28;20176;-67
2022/01/15 09:48:19;;;;;;;2.60;2.40;;;1.60;99.90;;;;;;5043534;28;20417;-67
2022/01/15 09:50:46;;;;;;;5.73;3.83;;;1.60;99.90;;;;;;5053179;28;20198;-66
2022/01/15 09:53:16;;;;;;;3.13;1.93;;;1.80;99.90;;;;;;5035998;28;20999;-67
2022/01/15 09:55:43;;;;;;;2.20;1.80;;;1.90;99.90;;;;;;5032373;28;20877;-67
2022/01/15 09:58:09;;;;;;;3.83;3.53;;;2.10;99.90;;;;;;5033291;28;20417;-67
2022/01/15 10:00:35;;;;;;;1.90;1.80;;;2.00;99.90;;;;;;5033294;28;20426;-68
2022/01/15 10:03:00;;;;;;;3.63;2.27;;;1.80;99.90;;;;;;5033335;28;20464;-67
2022/01/15 10:05:26;;;;;;;5.73;2.97;;;2.10;99.90;;;;;;5051028;28;20326;-67
2022/01/15 10:07:57;;;;;;;9.70;3.10;;;2.30;99.90;;;;;;5053464;28;20410;-67
2022/01/15 10:10:23;;;;;;;8.87;2.97;;;2.20;99.90;;;;;;5053069;28;20224;-67
2022/01/15 10:12:48;;;;;;;3.17;2.90;;;2.40;99.90;;;;;;5053305;28;20410;-67
2022/01/15 10:15:15;;;;;;;2.90;2.13;;;2.20;99.90;;;;;;5053316;28;20544;-66
2022/01/15 10:17:41;;;;;;;5.63;2.93;;;2.00;99.90;;;;;;5053617;28;20167;-67
2022/01/15 10:20:16;;;;;;;3.00;2.40;;;2.20;99.90;;;;;;5053387;28;20991;-67
2022/01/15 10:22:47;;;;;;;3.07;2.77;;;2.50;99.90;;;;;;5052995;28;20492;-67
2022/01/15 10:25:19;;;;;;;7.43;4.07;;;2.60;99.90;;;;;;5052726;28;20914;-67
2022/01/15 10:27:50;;;;;;;3.90;2.43;;;2.60;99.90;;;;;;5052783;28;20437;-67
2022/01/15 10:30:17;;;;;;;7.10;2.17;;;2.60;99.90;;;;;;5052657;28;20445;-67
2022/01/15 10:32:59;;;;;;;4.20;2.13;;;2.40;99.90;;;;;;5052995;28;20417;-67
2022/01/15 10:35:30;;;;;;;4.73;2.00;;;2.00;99.90;;;;;;5052795;28;20421;-67
2022/01/15 10:37:57;;;;;;;4.47;3.30;;;1.90;99.90;;;;;;5053443;28;20417;-67
2022/01/15 10:40:27;;;;;;;2.60;2.40;;;1.70;99.90;;;;;;5052209;28;20503;-67
2022/01/15 10:42:55;;;;;;;2.40;2.00;;;1.80;99.90;;;;;;5052709;28;20410;-66
2022/01/15 10:45:23;;;;;;;3.33;1.97;;;1.80;99.90;;;;;;5052752;28;20411;-67
2022/01/15 10:47:50;;;;;;;6.97;3.67;;;1.90;99.90;;;;;;5052702;28;20888;-67
2022/01/15 10:50:36;;;;;;;2.83;1.57;;;1.90;99.90;;;;;;5052549;28;20421;-67
2022/01/15 10:53:07;;;;;;;6.90;2.50;;;2.10;99.90;;;;;;5052504;28;20463;-67
2022/01/15 10:55:33;;;;;;;18.83;3.73;;;2.20;99.90;;;;;;5052282;28;20414;-67
2022/01/15 10:58:08;;;;;;;6.17;4.13;;;2.20;99.90;;;;;;5052422;28;20654;-66
2022/01/15 11:00:36;;;;;;;4.87;3.73;;;2.40;99.90;;;;;;5051890;28;20464;-66
2022/01/15 11:03:07;;;;;;;6.00;3.70;;;2.40;99.90;;;;;;5052274;28;20781;-67
2022/01/15 11:05:36;;;;;;;10.10;3.63;;;2.20;99.90;;;;;;5052296;28;20408;-66
2022/01/15 11:08:12;;;;;;;3.67;3.27;;;2.20;99.90;;;;;;5052020;28;20405;-66
2022/01/15 11:11:05;;;;;;;3.33;2.80;;;2.20;99.90;;;;;;5052295;28;20457;-66
2022/01/15 11:13:36;;;;;;;4.37;3.97;;;2.10;99.90;;;;;;5052017;28;20496;-68
2022/01/15 11:16:05;;;;;;;7.50;4.30;;;2.20;99.90;;;;;;5052163;28;20405;-67
2022/01/15 11:18:33;;;;;;;12.63;4.80;;;2.30;99.90;;;;;;5052258;28;20762;-67
2022/01/15 11:21:02;;;;;;;7.27;3.97;;;2.40;99.90;;;;;;5053853;28;20523;-66
2022/01/15 11:23:29;;;;;;;6.77;4.47;;;2.60;99.90;;;;;;5051951;28;20830;-67
2022/01/15 11:25:58;;;;;;;3.50;3.20;;;2.50;99.90;;;;;;5051876;28;20402;-66
2022/01/15 11:28:27;;;;;;;15.60;5.17;;;2.60;99.90;;;;;;5052150;28;20487;-68
2022/01/15 11:30:56;;;;;;;5.83;4.27;;;2.60;99.90;;;;;;5052287;28;20449;-67
2022/01/15 11:33:29;;;;;;;12.83;5.47;;;2.70;99.90;;;;;;5051893;28;20848;-69
2022/01/15 11:35:55;;;;;;;15.57;5.03;;;2.90;99.90;;;;;;5051876;28;20409;-67
2022/01/15 11:38:40;;;;;;;6.90;4.00;;;2.70;99.90;;;;;;5050535;28;20466;-67
2022/01/15 11:41:26;;;;;;;3.20;3.00;;;2.80;99.90;;;;;;5051809;28;20217;-67
2022/01/15 11:43:52;;;;;;;9.20;4.90;;;2.90;99.90;;;;;;5051602;28;20413;-66
2022/01/15 11:46:42;;;;;;;6.70;4.10;;;2.80;99.90;;;;;;5051458;28;20406;-67
2022/01/15 11:49:26;;;;;;;11.43;5.20;;;2.90;99.90;;;;;;5051467;28;20422;-67
2022/01/15 11:52:17;;;;;;;5.87;3.70;;;2.70;99.90;;;;;;5051749;28;20401;-66
2022/01/15 11:54:54;;;;;;;7.60;6.47;;;2.70;99.90;;;;;;5039838;28;20413;-66
2022/01/15 11:57:21;;;;;;;14.67;4.80;;;2.70;99.90;;;;;;5051787;28;20404;-67
2022/01/15 11:59:52;;;;;;;9.63;4.87;;;2.60;99.90;;;;;;5051550;28;20417;-67
2022/01/15 12:02:30;;;;;;;5.03;3.40;;;2.50;99.90;;;;;;5051847;28;20615;-67
2022/01/15 12:05:15;;;;;;;6.00;3.57;;;2.70;99.90;;;;;;5052089;28;20401;-66
2022/01/15 12:07:42;;;;;;;6.17;4.60;;;2.80;99.90;;;;;;5049032;28;20525;-66
2022/01/15 12:10:15;;;;;;;11.70;4.00;;;2.60;99.90;;;;;;5033698;28;20442;-66
2022/01/15 12:12:45;;;;;;;9.80;3.03;;;2.70;99.90;;;;;;5031708;28;20441;-67
2022/01/15 12:15:17;;;;;;;4.73;4.10;;;2.80;99.90;;;;;;5031742;28;20414;-66
2022/01/15 12:17:51;;;;;;;14.33;3.60;;;2.70;99.90;;;;;;5031489;28;20402;-67
2022/01/15 12:20:16;;;;;;;12.80;5.23;;;2.90;99.90;;;;;;5033655;28;20421;-67
2022/01/15 12:22:53;;;;;;;5.60;4.83;;;2.80;99.90;;;;;;5035633;28;20451;-66
2022/01/15 12:25:18;;;;;;;6.70;3.00;;;2.60;99.90;;;;;;5035460;28;20543;-66
2022/01/15 12:28:05;;;;;;;5.87;3.50;;;2.50;99.90;;;;;;5035277;28;20418;-66
2022/01/15 12:30:36;;;;;;;5.37;2.27;;;2.50;99.90;;;;;;5035077;28;20207;-67
2022/01/15 12:33:05;;;;;;;7.60;2.60;;;2.80;99.90;;;;;;5035301;28;20428;-67
2022/01/15 12:35:33;;;;;;;15.07;3.40;;;2.70;99.90;;;;;;5035233;28;20409;-67
2022/01/15 12:38:07;;;;;;;10.63;3.60;;;2.90;99.90;;;;;;5035440;28;20438;-67
2022/01/15 12:40:43;;;;;;;8.03;4.77;;;2.90;99.90;;;;;;5034935;28;20548;-67
2022/01/15 12:43:16;;;;;;;5.07;2.07;;;2.80;99.90;;;;;;5034771;28;20915;-67
2022/01/15 12:45:42;;;;;;;6.00;2.97;;;2.70;99.90;;;;;;5035075;28;20413;-67
2022/01/15 12:48:13;;;;;;;6.50;3.30;;;2.60;99.90;;;;;;5034788;28;20405;-67
2022/01/15 12:50:45;;;;;;;2.40;2.20;;;2.70;99.90;;;;;;5034597;28;20422;-68
2022/01/15 12:53:12;;;;;;;6.83;3.33;;;2.70;99.90;;;;;;5034705;28;20463;-67
2022/01/15 12:55:39;;;;;;;10.83;3.20;;;2.60;99.90;;;;;;5034461;28;20403;-67
2022/01/15 12:58:06;;;;;;;4.70;2.80;;;2.80;99.90;;;;;;5034595;28;20410;-66
2022/01/15 13:00:34;;;;;;;7.13;3.13;;;2.80;99.90;;;;;;5034620;28;20492;-67
2022/01/15 13:03:11;;;;;;;6.33;3.20;;;2.70;99.90;;;;;;5034548;28;20422;-67
2022/01/15 13:05:42;;;;;;;8.03;3.37;;;2.70;99.90;;;;;;5034573;28;20478;-66
2022/01/15 13:08:13;;;;;;;8.33;2.93;;;2.90;99.90;;;;;;5034349;28;20411;-66
2022/01/15 13:10:58;;;;;;;2.70;2.47;;;2.60;99.90;;;;;;5034546;28;20568;-67
2022/01/15 13:13:30;;;;;;;3.60;2.40;;;2.60;99.90;;;;;;5034184;28;20413;-67
2022/01/15 13:16:05;;;;;;;8.80;3.90;;;2.90;99.90;;;;;;5034744;28;20403;-67
2022/01/15 13:18:36;;;;;;;8.10;3.40;;;3.00;99.90;;;;;;5034284;28;20414;-67
2022/01/15 13:21:08;;;;;;;6.33;5.80;;;2.90;99.90;;;;;;5034230;28;20445;-67